createdAt,value
2017-08-16T00:02:11.077Z,93.70
2017-08-16T00:04:38.961Z,93.80
2017-08-16T00:07:06.543Z,93.80
2017-08-16T00:09:34.135Z,93.90
2017-08-16T00:12:01.721Z,93.60
2017-08-16T00:14:29.695Z,94.10
2017-08-16T00:16:57.346Z,94.10
2017-08-16T00:19:24.912Z,94.30
2017-08-16T00:21:52.496Z,94.20
2017-08-16T00:24:20.904Z,94.00
2017-08-16T00:26:48.503Z,94.00
2017-08-16T00:29:16.079Z,94.10
2017-08-16T00:31:44.022Z,94.10
2017-08-16T00:34:11.595Z,94.10
2017-08-16T00:36:39.166Z,94.00
2017-08-16T00:39:06.757Z,94.00
2017-08-16T00:41:34.322Z,93.60
2017-08-16T00:44:01.944Z,93.60
2017-08-16T00:46:29.521Z,93.80
2017-08-16T00:48:58.144Z,93.90
2017-08-16T00:51:25.763Z,93.90
2017-08-16T00:53:54.100Z,94.30
2017-08-16T00:56:21.705Z,94.30
2017-08-16T00:58:50.044Z,94.20
2017-08-16T01:01:17.631Z,94.20
2017-08-16T01:03:45.971Z,93.60
2017-08-16T01:06:13.856Z,93.30
2017-08-16T01:08:41.451Z,93.40
2017-08-16T01:11:09.121Z,93.50
2017-08-16T01:13:36.726Z,93.80
2017-08-16T01:16:04.302Z,93.80
2017-08-16T01:18:31.908Z,93.60
2017-08-16T01:20:59.469Z,93.50
2017-08-16T01:23:27.303Z,93.80
2017-08-16T01:25:55.633Z,94.00
2017-08-16T01:28:23.213Z,94.00
2017-08-16T01:30:50.810Z,94.10
2017-08-16T01:33:19.159Z,94.10
2017-08-16T01:35:46.750Z,94.00
2017-08-16T01:38:14.333Z,94.10
2017-08-16T01:40:42.230Z,94.10
2017-08-16T01:43:09.803Z,93.80
2017-08-16T01:45:37.420Z,94.00
2017-08-16T01:48:05.003Z,94.00
2017-08-16T01:50:32.582Z,94.10
2017-08-16T01:53:00.184Z,94.20
2017-08-16T01:55:27.759Z,94.50
2017-08-16T01:57:55.646Z,94.60
2017-08-16T02:00:23.176Z,94.50
2017-08-16T02:02:50.717Z,94.10
2017-08-16T02:05:19.024Z,94.10
2017-08-16T02:07:46.560Z,94.10
2017-08-16T02:10:14.127Z,94.20
2017-08-16T02:12:41.698Z,94.20
2017-08-16T02:15:09.547Z,94.10
2017-08-16T02:17:37.095Z,94.10
2017-08-16T02:20:04.639Z,94.20
2017-08-16T02:22:32.215Z,94.10
2017-08-16T02:25:00.554Z,93.90
2017-08-16T02:27:28.399Z,93.90
2017-08-16T02:29:55.990Z,94.10
2017-08-16T02:32:23.627Z,94.00
2017-08-16T02:34:51.239Z,94.30
2017-08-16T02:37:19.589Z,94.20
2017-08-16T02:39:47.456Z,94.20
2017-08-16T02:42:15.019Z,94.40
2017-08-16T02:44:42.636Z,94.40
2017-08-16T02:47:10.238Z,94.50
2017-08-16T02:49:37.820Z,94.60
2017-08-16T02:52:05.796Z,94.70
2017-08-16T02:54:33.491Z,94.70
2017-08-16T02:57:01.070Z,94.80
2017-08-16T02:59:28.662Z,94.90
2017-08-16T03:01:56.242Z,94.90
2017-08-16T03:04:24.159Z,95.10
2017-08-16T03:06:51.741Z,95.20
2017-08-16T03:09:19.345Z,95.20
2017-08-16T03:11:46.927Z,95.20
2017-08-16T03:14:14.499Z,95.10
2017-08-16T03:16:42.130Z,95.10
2017-08-16T03:19:09.686Z,95.10
2017-08-16T03:21:37.244Z,95.10
2017-08-16T03:24:04.845Z,95.10
2017-08-16T03:26:32.425Z,95.10
2017-08-16T03:29:00.753Z,95.00
2017-08-16T03:31:28.341Z,95.00
2017-08-16T03:33:55.915Z,94.90
2017-08-16T03:36:24.247Z,95.20
2017-08-16T03:38:51.875Z,94.90
2017-08-16T03:41:19.446Z,94.90
2017-08-16T03:43:47.012Z,95.00
2017-08-16T03:46:14.607Z,95.00
2017-08-16T03:48:42.184Z,95.10
2017-08-16T03:51:09.778Z,95.10
2017-08-16T03:53:37.352Z,95.20
2017-08-16T03:56:04.953Z,95.00
2017-08-16T03:58:32.552Z,94.90
2017-08-16T04:01:00.106Z,95.00
2017-08-16T04:03:28.479Z,95.20
2017-08-16T04:05:56.805Z,95.20
2017-08-16T04:08:24.447Z,95.20
2017-08-16T04:10:52.047Z,95.30
2017-08-16T04:13:19.615Z,95.10
2017-08-16T04:15:47.211Z,95.40
2017-08-16T04:18:14.788Z,95.80
2017-08-16T04:20:42.393Z,95.90
2017-08-16T04:23:09.996Z,96.10
2017-08-16T04:25:37.580Z,95.90
2017-08-16T04:28:05.435Z,95.70
2017-08-16T04:30:32.998Z,95.50
2017-08-16T04:33:00.571Z,95.30
2017-08-16T04:35:28.172Z,95.80
2017-08-16T04:37:56.503Z,95.80
2017-08-16T04:40:24.116Z,95.80
2017-08-16T04:42:52.468Z,95.40
2017-08-16T04:45:20.438Z,95.40
2017-08-16T04:47:47.997Z,95.30
2017-08-16T04:50:15.566Z,95.30
2017-08-16T04:52:43.149Z,95.20
2017-08-16T04:55:11.442Z,95.40
2017-08-16T04:57:39.034Z,95.40
2017-08-16T05:00:06.620Z,95.50
2017-08-16T05:02:34.565Z,95.60
2017-08-16T05:05:02.133Z,95.80
2017-08-16T05:07:29.726Z,95.70
2017-08-16T05:09:58.083Z,95.70
2017-08-16T05:12:25.685Z,95.70
2017-08-16T05:14:53.269Z,95.60
2017-08-16T05:17:20.843Z,95.50
2017-08-16T05:19:48.708Z,95.50
2017-08-16T05:22:16.308Z,95.40
2017-08-16T05:24:44.652Z,95.30
2017-08-16T05:27:12.251Z,95.30
2017-08-16T05:29:39.833Z,95.20
2017-08-16T05:32:07.437Z,95.00
2017-08-16T05:34:35.018Z,94.90
2017-08-16T05:37:03.618Z,94.60
2017-08-16T05:39:31.202Z,94.60
2017-08-16T05:41:58.789Z,94.40
2017-08-16T05:44:26.396Z,94.10
2017-08-16T05:46:53.963Z,93.80
2017-08-16T05:49:21.547Z,93.50
2017-08-16T05:51:49.136Z,93.50
2017-08-16T05:54:17.268Z,93.20
2017-08-16T05:56:44.836Z,93.10
2017-08-16T05:59:12.411Z,92.90
2017-08-16T06:01:40.002Z,92.80
2017-08-16T06:04:07.690Z,92.40
2017-08-16T06:06:35.314Z,92.30
2017-08-16T06:09:06.564Z,92.00
2017-08-16T06:11:34.451Z,91.90
2017-08-16T06:14:02.014Z,92.10
2017-08-16T06:16:29.598Z,91.80
2017-08-16T06:18:57.223Z,91.60
2017-08-16T06:21:25.588Z,91.10
2017-08-16T06:23:53.199Z,91.10
2017-08-16T06:26:20.781Z,90.60
2017-08-16T06:28:48.725Z,90.40
2017-08-16T06:31:16.295Z,89.70
2017-08-16T06:33:43.854Z,88.60
2017-08-16T06:36:11.504Z,88.70
2017-08-16T06:38:39.066Z,86.60
2017-08-16T06:41:06.655Z,86.70
2017-08-16T06:43:34.257Z,86.30
2017-08-16T06:46:02.178Z,84.50
2017-08-16T06:48:29.763Z,84.20
2017-08-16T06:50:57.303Z,82.20
2017-08-16T06:53:24.894Z,82.90
2017-08-16T06:55:53.222Z,80.60
2017-08-16T06:58:20.818Z,80.50
2017-08-16T07:00:48.410Z,77.90
2017-08-16T07:03:16.318Z,77.30
2017-08-16T07:05:43.896Z,74.90
2017-08-16T07:08:11.469Z,74.30
2017-08-16T07:10:39.858Z,70.30
2017-08-16T07:13:07.455Z,69.60
2017-08-16T07:15:35.346Z,68.20
2017-08-16T07:18:02.944Z,65.70
2017-08-16T07:20:31.316Z,63.70
2017-08-16T07:22:59.265Z,63.70
2017-08-16T07:25:26.861Z,64.80
2017-08-16T07:27:55.092Z,66.50
2017-08-16T07:30:22.722Z,67.50
2017-08-16T07:32:50.557Z,68.30
2017-08-16T07:35:18.254Z,69.20
2017-08-16T07:37:45.853Z,68.70
2017-08-16T07:40:14.192Z,68.60
2017-08-16T07:42:41.776Z,66.90
2017-08-16T07:45:09.519Z,67.30
2017-08-16T07:47:37.114Z,67.90
2017-08-16T07:50:04.960Z,68.00
2017-08-16T07:52:32.537Z,69.10
2017-08-16T07:55:00.124Z,71.20
2017-08-16T07:57:28.491Z,68.00
2017-08-16T07:59:56.068Z,67.90
2017-08-16T08:02:23.992Z,66.10
2017-08-16T08:04:51.556Z,64.70
2017-08-16T08:07:19.123Z,64.30
2017-08-16T08:09:46.674Z,65.60
2017-08-16T08:12:14.253Z,66.80
2017-08-16T08:14:42.615Z,68.30
2017-08-16T08:17:10.200Z,68.30
2017-08-16T08:19:38.123Z,70.40
2017-08-16T08:22:05.708Z,70.30
2017-08-16T08:24:33.284Z,70.30
2017-08-16T08:27:00.863Z,70.00
2017-08-16T08:29:28.437Z,69.80
2017-08-16T08:31:56.045Z,68.20
2017-08-16T08:34:23.635Z,67.00
2017-08-16T08:36:51.579Z,66.00
2017-08-16T08:39:19.909Z,64.60
2017-08-16T08:41:47.480Z,64.50
2017-08-16T08:44:15.215Z,64.70
2017-08-16T08:46:42.825Z,64.50
2017-08-16T08:49:10.418Z,63.70
2017-08-16T08:51:38.012Z,63.80
2017-08-16T08:54:05.903Z,63.00
2017-08-16T08:56:33.524Z,61.30
2017-08-16T08:59:01.109Z,60.60
2017-08-16T09:01:28.700Z,59.80
2017-08-16T09:03:57.056Z,58.50
2017-08-16T09:06:24.875Z,59.00
2017-08-16T09:08:52.454Z,56.10
2017-08-16T09:11:20.352Z,52.30
2017-08-16T09:13:47.919Z,49.00
2017-08-16T09:16:15.486Z,46.20
2017-08-16T09:18:43.081Z,44.50
2017-08-16T09:21:10.633Z,44.00
2017-08-16T09:23:38.242Z,43.90
2017-08-16T09:26:06.606Z,38.10
2017-08-16T09:28:34.738Z,38.00
2017-08-16T09:31:02.324Z,32.80
2017-08-16T09:33:29.936Z,31.00
2017-08-16T09:35:57.541Z,28.90
2017-08-16T09:38:25.213Z,26.70
2017-08-16T09:40:52.875Z,29.30
2017-08-16T09:43:20.470Z,29.20
2017-08-16T09:45:48.426Z,29.60
2017-08-16T09:48:16.073Z,30.50
2017-08-16T09:50:43.639Z,29.90
2017-08-16T09:53:11.227Z,28.50
2017-08-16T09:55:38.804Z,27.50
2017-08-16T09:58:07.150Z,27.50
2017-08-16T10:00:34.723Z,27.40
2017-08-16T10:03:02.608Z,27.50
2017-08-16T10:05:30.965Z,25.00
2017-08-16T10:07:58.557Z,25.00
2017-08-16T10:10:26.191Z,24.90
2017-08-16T10:12:54.542Z,26.10
2017-08-16T10:15:22.147Z,26.60
2017-08-16T10:17:50.553Z,25.40
2017-08-16T10:20:18.405Z,25.40
2017-08-16T10:22:45.996Z,25.50
2017-08-16T10:25:13.588Z,26.20
2017-08-16T10:27:41.203Z,25.90
2017-08-16T10:30:08.792Z,27.50
2017-08-16T10:32:37.093Z,28.60
2017-08-16T10:35:05.515Z,30.60
2017-08-16T10:37:33.104Z,30.50
2017-08-16T10:40:00.696Z,31.00
2017-08-16T10:42:29.030Z,32.90
2017-08-16T10:44:56.637Z,32.80
2017-08-16T10:47:24.225Z,31.80
2017-08-16T10:49:52.165Z,32.10
2017-08-16T10:52:20.495Z,31.10
2017-08-16T10:54:48.066Z,31.00
2017-08-16T10:57:15.676Z,31.10
2017-08-16T10:59:43.257Z,32.90
2017-08-16T11:02:10.856Z,33.10
2017-08-16T11:04:38.432Z,32.20
2017-08-16T11:07:07.068Z,31.80
2017-08-16T11:09:34.679Z,32.40
2017-08-16T11:12:03.035Z,38.10
2017-08-16T11:14:30.621Z,38.00
2017-08-16T11:16:58.196Z,38.60
2017-08-16T11:19:25.800Z,38.80
2017-08-16T11:21:53.398Z,40.00
2017-08-16T11:24:22.047Z,38.00
2017-08-16T11:26:49.639Z,37.90
2017-08-16T11:29:18.005Z,34.70
2017-08-16T11:31:45.614Z,34.80
2017-08-16T11:34:13.188Z,34.90
2017-08-16T11:36:40.809Z,34.80
2017-08-16T11:39:08.409Z,35.10
2017-08-16T11:41:36.274Z,37.70
2017-08-16T11:44:03.852Z,39.00
2017-08-16T11:46:31.432Z,38.60
2017-08-16T11:48:59.057Z,39.30
2017-08-16T11:51:26.639Z,39.40
2017-08-16T11:53:54.896Z,37.70
2017-08-16T11:56:22.476Z,37.70
2017-08-16T11:58:50.442Z,37.30
2017-08-16T12:01:18.011Z,35.70
2017-08-16T12:03:45.572Z,34.50
2017-08-16T12:06:13.157Z,34.60
2017-08-16T12:08:40.744Z,31.90
2017-08-16T12:11:08.638Z,29.70
2017-08-16T12:13:36.223Z,28.90
2017-08-16T12:16:03.810Z,27.80
2017-08-16T12:18:31.648Z,26.70
2017-08-16T12:20:59.227Z,28.40
2017-08-16T12:23:27.582Z,32.40
2017-08-16T12:25:55.163Z,32.40
2017-08-16T12:28:23.909Z,32.30
2017-08-16T12:30:51.502Z,32.30
2017-08-16T12:33:19.877Z,37.60
2017-08-16T12:35:48.281Z,39.70
2017-08-16T12:38:15.873Z,39.60
2017-08-16T12:40:43.480Z,38.80
2017-08-16T12:43:11.830Z,38.90
2017-08-16T12:45:39.555Z,38.80
2017-08-16T12:48:07.167Z,39.20
2017-08-16T12:50:35.542Z,39.80
2017-08-16T12:53:03.406Z,39.40
2017-08-16T12:55:30.990Z,39.70
2017-08-16T12:57:58.591Z,39.20
2017-08-16T13:00:26.188Z,39.00
2017-08-16T13:02:53.794Z,39.80
2017-08-16T13:05:21.736Z,40.20
2017-08-16T13:07:49.308Z,39.40
2017-08-16T13:10:16.912Z,39.70
2017-08-16T13:12:44.517Z,40.00
2017-08-16T13:15:12.869Z,41.80
2017-08-16T13:17:40.485Z,41.80
2017-08-16T13:20:08.068Z,42.60
2017-08-16T13:22:35.981Z,42.60
2017-08-16T13:25:04.414Z,42.80
2017-08-16T13:27:32.003Z,42.80
2017-08-16T13:29:59.603Z,42.40
2017-08-16T13:32:27.199Z,41.80
2017-08-16T13:34:54.777Z,42.00
2017-08-16T13:37:22.357Z,43.10
2017-08-16T13:39:51.077Z,44.10
2017-08-16T13:42:18.655Z,44.00
2017-08-16T13:44:46.257Z,44.30
2017-08-16T13:47:13.908Z,44.10
2017-08-16T13:49:41.525Z,43.50
2017-08-16T13:52:09.406Z,44.10
2017-08-16T13:54:36.981Z,44.00
2017-08-16T13:57:04.568Z,44.30
2017-08-16T13:59:32.943Z,44.50
2017-08-16T14:02:01.471Z,45.10
2017-08-16T14:04:29.097Z,45.10
2017-08-16T14:06:57.423Z,46.10
2017-08-16T14:09:25.291Z,46.10
2017-08-16T14:11:52.938Z,46.80
2017-08-16T14:14:20.568Z,46.80
2017-08-16T14:16:48.258Z,47.20
2017-08-16T14:19:15.844Z,46.50
2017-08-16T14:21:43.500Z,46.30
2017-08-16T14:24:11.088Z,45.70
2017-08-16T14:26:38.965Z,44.80
2017-08-16T14:29:07.326Z,44.20
2017-08-16T14:31:34.918Z,44.10
2017-08-16T14:34:02.604Z,45.20
2017-08-16T14:36:30.203Z,46.70
2017-08-16T14:38:57.790Z,47.20
2017-08-16T14:41:26.195Z,47.00
2017-08-16T14:43:54.100Z,46.90
2017-08-16T14:46:21.752Z,46.30
2017-08-16T14:48:49.322Z,47.10
2017-08-16T14:51:16.927Z,47.30
2017-08-16T14:53:44.498Z,46.50
2017-08-16T14:56:12.128Z,46.20
2017-08-16T14:58:40.480Z,46.30
2017-08-16T15:01:08.438Z,46.30
2017-08-16T15:03:36.020Z,45.90
2017-08-16T15:06:03.609Z,46.50
2017-08-16T15:08:31.227Z,46.70
2017-08-16T15:10:58.824Z,46.80
2017-08-16T15:13:28.091Z,46.60
2017-08-16T15:15:55.673Z,46.50
2017-08-16T15:18:24.330Z,46.10
2017-08-16T15:20:51.931Z,46.10
2017-08-16T15:23:19.524Z,46.30
2017-08-16T15:25:47.117Z,46.50
2017-08-16T15:28:14.700Z,46.10
2017-08-16T15:30:43.083Z,45.90
2017-08-16T15:33:11.448Z,46.40
2017-08-16T15:35:40.157Z,46.30
2017-08-16T15:38:08.223Z,46.30
2017-08-16T15:40:35.797Z,46.10
2017-08-16T15:43:03.463Z,46.50
2017-08-16T15:45:31.277Z,47.90
2017-08-16T15:47:58.851Z,48.30
2017-08-16T15:50:27.207Z,47.50
2017-08-16T15:52:55.160Z,47.10
2017-08-16T15:55:22.770Z,47.90
2017-08-16T15:57:51.113Z,48.00
2017-08-16T16:00:18.695Z,47.90
2017-08-16T16:02:47.038Z,47.60
2017-08-16T16:05:14.669Z,47.50
2017-08-16T16:07:42.269Z,47.60
2017-08-16T16:10:10.259Z,47.90
2017-08-16T16:12:38.628Z,48.60
2017-08-16T16:15:06.218Z,48.60
2017-08-16T16:17:33.853Z,49.20
2017-08-16T16:20:01.485Z,49.80
2017-08-16T16:22:29.078Z,50.70
2017-08-16T16:24:56.684Z,49.90
2017-08-16T16:27:24.776Z,51.20
2017-08-16T16:29:52.353Z,51.90
2017-08-16T16:32:19.944Z,52.30
2017-08-16T16:34:48.338Z,52.10
2017-08-16T16:37:15.922Z,52.10
2017-08-16T16:39:43.525Z,52.30
2017-08-16T16:42:11.875Z,53.50
2017-08-16T16:44:39.755Z,53.50
2017-08-16T16:47:07.354Z,53.60
2017-08-16T16:49:35.008Z,54.00
2017-08-16T16:52:02.600Z,54.10
2017-08-16T16:54:30.183Z,54.20
2017-08-16T16:56:57.782Z,55.10
2017-08-16T16:59:26.177Z,55.60
2017-08-16T17:01:54.080Z,55.50
2017-08-16T17:04:21.657Z,55.70
2017-08-16T17:06:50.119Z,56.60
2017-08-16T17:09:17.897Z,56.20
2017-08-16T17:11:45.523Z,56.70
2017-08-16T17:14:13.139Z,56.60
2017-08-16T17:16:41.491Z,57.30
2017-08-16T17:19:09.365Z,57.60
2017-08-16T17:21:36.951Z,57.70
2017-08-16T17:24:05.305Z,57.80
2017-08-16T17:26:33.033Z,57.70
2017-08-16T17:29:00.602Z,58.30
2017-08-16T17:31:28.268Z,58.40
2017-08-16T17:33:55.875Z,59.60
2017-08-16T17:36:23.851Z,60.50
2017-08-16T17:38:51.478Z,61.40
2017-08-16T17:41:19.053Z,61.30
2017-08-16T17:43:47.455Z,63.90
2017-08-16T17:46:15.043Z,63.00
2017-08-16T17:48:42.939Z,64.50
2017-08-16T17:51:10.538Z,65.40
2017-08-16T17:53:38.171Z,68.70
2017-08-16T17:56:05.792Z,71.00
2017-08-16T17:58:33.354Z,72.20
2017-08-16T18:01:00.957Z,73.10
2017-08-16T18:03:28.563Z,73.70
2017-08-16T18:05:56.154Z,73.90
2017-08-16T18:08:24.688Z,73.90
2017-08-16T18:10:52.707Z,73.80
2017-08-16T18:13:20.465Z,73.40
2017-08-16T18:15:48.065Z,74.30
2017-08-16T18:18:16.448Z,74.70
2017-08-16T18:20:44.804Z,74.90
2017-08-16T18:23:12.428Z,74.90
2017-08-16T18:25:40.035Z,75.30
2017-08-16T18:28:08.454Z,75.50
2017-08-16T18:30:36.055Z,75.50
2017-08-16T18:33:03.893Z,75.70
2017-08-16T18:35:31.491Z,76.40
2017-08-16T18:37:59.849Z,77.30
2017-08-16T18:40:27.428Z,77.20
2017-08-16T18:42:55.077Z,77.80
2017-08-16T18:45:22.976Z,78.70
2017-08-16T18:47:51.333Z,79.80
2017-08-16T18:50:18.931Z,79.80
2017-08-16T18:52:46.516Z,80.20
2017-08-16T18:55:14.114Z,80.20
2017-08-16T18:57:41.716Z,80.20
2017-08-16T19:00:09.326Z,80.00
2017-08-16T19:02:37.295Z,80.00
2017-08-16T19:05:04.908Z,80.80
2017-08-16T19:07:32.518Z,81.20
2017-08-16T19:10:00.141Z,80.60
2017-08-16T19:12:27.743Z,80.40
2017-08-16T19:14:56.118Z,81.90
2017-08-16T19:17:23.731Z,81.30
2017-08-16T19:19:51.608Z,81.80
2017-08-16T19:22:19.576Z,81.30
2017-08-16T19:24:47.159Z,83.30
2017-08-16T19:27:14.897Z,83.00
2017-08-16T19:29:43.467Z,87.00
2017-08-16T19:32:11.068Z,87.00
2017-08-16T19:34:38.666Z,87.00
2017-08-16T19:37:06.696Z,87.60
2017-08-16T19:39:34.373Z,88.20
2017-08-16T19:42:01.948Z,88.80
2017-08-16T19:44:30.333Z,88.50
2017-08-16T19:46:57.922Z,88.50
2017-08-16T19:49:25.546Z,88.50
2017-08-16T19:51:54.152Z,86.60
2017-08-16T19:54:22.073Z,86.50
2017-08-16T19:56:49.658Z,88.20
2017-08-16T19:59:17.424Z,88.70
2017-08-16T20:01:45.488Z,89.20
2017-08-16T20:04:13.865Z,89.40
2017-08-16T20:06:41.458Z,89.40
2017-08-16T20:09:09.031Z,89.90
2017-08-16T20:11:38.301Z,89.90
2017-08-16T20:14:05.884Z,90.10
2017-08-16T20:16:33.492Z,90.30
2017-08-16T20:19:01.097Z,90.40
2017-08-16T20:21:28.706Z,90.20
2017-08-16T20:23:56.337Z,90.30
2017-08-16T20:26:23.977Z,90.10
2017-08-16T20:28:52.005Z,90.10
2017-08-16T20:31:19.591Z,90.10
2017-08-16T20:33:47.179Z,90.00
2017-08-16T20:36:14.786Z,89.60
2017-08-16T20:38:42.407Z,89.60
2017-08-16T20:41:10.188Z,89.20
2017-08-16T20:43:37.769Z,89.30
2017-08-16T20:46:05.625Z,89.30
2017-08-16T20:48:33.228Z,89.30
2017-08-16T20:51:00.867Z,88.70
2017-08-16T20:53:28.519Z,88.20
2017-08-16T20:55:56.114Z,88.30
2017-08-16T20:58:23.707Z,88.70
2017-08-16T21:00:51.302Z,89.10
2017-08-16T21:03:18.901Z,89.10
2017-08-16T21:05:46.501Z,89.40
2017-08-16T21:08:14.132Z,89.30
2017-08-16T21:10:42.039Z,89.10
2017-08-16T21:13:09.620Z,89.40
2017-08-16T21:15:37.241Z,89.20
2017-08-16T21:18:05.315Z,89.80
2017-08-16T21:20:32.928Z,90.50
2017-08-16T21:23:00.516Z,90.00
2017-08-16T21:25:28.142Z,90.00
2017-08-16T21:27:55.706Z,90.30
2017-08-16T21:30:23.311Z,90.50
2017-08-16T21:32:50.949Z,90.60
2017-08-16T21:35:18.849Z,90.80
2017-08-16T21:37:46.427Z,90.60
2017-08-16T21:40:14.025Z,90.90
2017-08-16T21:42:41.622Z,91.10
2017-08-16T21:45:09.186Z,91.00
2017-08-16T21:47:36.766Z,91.00
2017-08-16T21:50:04.365Z,90.80
2017-08-16T21:52:32.212Z,90.90
2017-08-16T21:54:59.793Z,90.90
2017-08-16T21:57:27.356Z,90.90
2017-08-16T21:59:54.983Z,90.80
2017-08-16T22:02:23.816Z,90.70
2017-08-16T22:04:51.426Z,90.70
2017-08-16T22:07:19.776Z,91.00
2017-08-16T22:09:47.630Z,90.90
2017-08-16T22:12:15.248Z,91.30
2017-08-16T22:14:42.811Z,91.30
2017-08-16T22:17:10.423Z,91.30
2017-08-16T22:19:37.980Z,91.60
2017-08-16T22:22:05.598Z,91.80
2017-08-16T22:24:33.177Z,92.10
2017-08-16T22:27:01.066Z,92.00
2017-08-16T22:29:28.650Z,91.80
2017-08-16T22:31:56.990Z,92.20
2017-08-16T22:34:24.584Z,92.20
2017-08-16T22:36:52.923Z,92.40
2017-08-16T22:39:20.511Z,92.30
2017-08-16T22:41:48.088Z,92.30
2017-08-16T22:44:16.721Z,92.80
2017-08-16T22:46:44.315Z,92.80
2017-08-16T22:49:11.902Z,93.20
2017-08-16T22:51:39.486Z,93.40
2017-08-16T22:54:07.060Z,93.30
2017-08-16T22:56:34.649Z,93.30
2017-08-16T22:59:02.253Z,93.40
2017-08-16T23:01:30.183Z,93.50
2017-08-16T23:03:57.760Z,93.50
2017-08-16T23:06:26.103Z,93.40
2017-08-16T23:08:53.719Z,93.40
2017-08-16T23:11:21.253Z,93.10
2017-08-16T23:13:49.615Z,93.20
2017-08-16T23:16:22.691Z,93.20
2017-08-16T23:18:50.619Z,93.40
2017-08-16T23:21:18.185Z,93.60
2017-08-16T23:23:45.770Z,93.60
2017-08-16T23:26:13.421Z,93.40
2017-08-16T23:28:41.040Z,93.50
2017-08-16T23:31:08.624Z,93.60
2017-08-16T23:33:36.224Z,93.40
2017-08-16T23:36:04.193Z,93.30
2017-08-16T23:38:31.739Z,93.20
2017-08-16T23:40:59.342Z,93.00
2017-08-16T23:43:26.956Z,93.30
2017-08-16T23:45:55.036Z,93.20
2017-08-16T23:48:22.637Z,93.00
2017-08-16T23:50:50.983Z,93.10
2017-08-16T23:53:18.846Z,93.10
2017-08-16T23:55:46.448Z,93.10
2017-08-16T23:58:14.062Z,93.30
